Time;durP1;ratioP1;P1;durP2;ratioP2;P2;SDS_P1;SDS_P2;PMS_P1;PMS_P2;Temp;Humidity;BMP_temperature;BMP_pressure;BME280_temperature;BME280_humidity;BME280_pressure;Samples;Min_cycle;Max_cycle;Signal;HPM_P1;HPM_P2
2023/04/13 00:01:35;;;;;;;;;;;;;;;8.99;40.85;93854.06;4193411;28;19932;-57
2023/04/13 00:03:37;;;;;;;;;;;;;;;8.89;40.78;93856.09;4193617;28;20384;-57
2023/04/13 00:05:40;;;;;;;;;;;;;;;8.79;41.32;93849.25;4193445;28;20438;-57
2023/04/13 00:07:42;;;;;;;;;;;;;;;8.75;40.59;93857.59;4190865;28;21275;-57
2023/04/13 00:09:46;;;;;;;;;;;;;;;8.70;41.78;93855.50;4192737;28;19978;-55
2023/04/13 00:11:48;;;;;;;;;;;;;;;8.75;41.71;93860.22;4189400;28;19924;-54
2023/04/13 00:13:49;;;;;;;;;;;;;;;8.78;40.98;93857.28;4194051;28;20439;-56
2023/04/13 00:15:52;;;;;;;;;;;;;;;8.77;42.43;93869.50;4193677;28;20061;-54
2023/04/13 00:17:54;;;;;;;;;;;;;;;8.77;42.49;93873.91;4193349;28;20069;-56
2023/04/13 00:19:58;;;;;;;;;;;;;;;8.59;44.40;93868.91;4194244;28;19932;-57
2023/04/13 00:22:00;;;;;;;;;;;;;;;8.56;45.03;93877.06;4194983;28;20584;-56
2023/04/13 00:24:01;;;;;;;;;;;;;;;8.39;42.75;93869.25;4194517;28;19975;-57
2023/04/13 00:26:03;;;;;;;;;;;;;;;8.41;44.17;93874.34;4193171;28;19929;-57
2023/04/13 00:28:05;;;;;;;;;;;;;;;8.29;44.00;93879.06;4191982;28;20367;-56
2023/04/13 00:30:08;;;;;;;;;;;;;;;7.96;45.52;93875.66;4193434;28;19962;-55
2023/04/13 00:32:10;;;;;;;;;;;;;;;7.89;45.51;93869.44;4192833;28;19925;-56
2023/04/13 00:34:11;;;;;;;;;;;;;;;7.86;47.50;93875.00;4193986;28;20001;-57
2023/04/13 00:36:13;;;;;;;;;;;;;;;7.84;47.57;93880.38;4193485;28;20000;-56
2023/04/13 00:38:14;;;;;;;;;;;;;;;7.95;47.52;93867.00;4194336;28;20000;-56
2023/04/13 00:40:16;;;;;;;;;;;;;;;8.07;47.28;93880.53;4194283;28;19974;-56
2023/04/13 00:42:18;;;;;;;;;;;;;;;8.17;47.46;93881.19;4194472;28;20025;-57
2023/04/13 00:44:20;;;;;;;;;;;;;;;8.29;47.58;93875.63;4194026;28;19928;-55
2023/04/13 00:46:22;;;;;;;;;;;;;;;8.33;46.82;93882.16;4194476;28;19925;-56
2023/04/13 00:48:24;;;;;;;;;;;;;;;8.37;47.47;93867.78;4192453;28;20216;-53
2023/04/13 00:50:25;;;;;;;;;;;;;;;8.39;47.25;93869.25;4192568;28;20077;-53
2023/04/13 00:52:27;;;;;;;;;;;;;;;8.37;47.31;93873.03;4193527;28;19928;-56
2023/04/13 00:54:30;;;;;;;;;;;;;;;8.35;46.90;93874.97;4183531;28;20059;-55
2023/04/13 00:56:32;;;;;;;;;;;;;;;8.29;47.55;93883.47;4194180;28;19936;-56
2023/04/13 00:58:34;;;;;;;;;;;;;;;8.27;47.85;93880.19;4192838;28;20019;-55
2023/04/13 01:00:37;;;;;;;;;;;;;;;8.17;47.18;93881.19;4188504;28;19929;-57
2023/04/13 01:02:40;;;;;;;;;;;;;;;8.18;47.28;93885.41;4191666;28;20474;-56
2023/04/13 01:04:44;;;;;;;;;;;;;;;8.17;47.21;93885.56;4193982;28;19947;-53
2023/04/13 01:06:53;;;;;;;;;;;;;;;8.21;46.93;93889.50;4193994;28;19985;-56
2023/04/13 01:08:56;;;;;;;;;;;;;;;8.21;47.13;93886.88;4191654;28;20384;-53
2023/04/13 01:11:03;;;;;;;;;;;;;;;8.16;47.37;93884.75;4189679;28;20336;-55
2023/04/13 01:13:21;;;;;;;;;;;;;;;8.09;47.41;93883.81;4190403;28;20071;-55
2023/04/13 01:15:24;;;;;;;;;;;;;;;8.04;47.58;93896.50;4192202;28;19950;-53
2023/04/13 01:17:27;;;;;;;;;;;;;;;8.04;47.38;93893.09;4190148;28;20426;-56
2023/04/13 01:19:50;;;;;;;;;;;;;;;8.04;47.86;93893.09;4192120;28;19936;-54
2023/04/13 01:21:53;;;;;;;;;;;;;;;8.07;47.62;93885.75;4191570;28;20046;-57
2023/04/13 01:24:07;;;;;;;;;;;;;;;8.11;47.41;93892.28;4190874;28;19924;-55
2023/04/13 01:26:09;;;;;;;;;;;;;;;8.04;47.09;93893.91;4192403;28;19974;-56
2023/04/13 01:28:14;;;;;;;;;;;;;;;8.02;47.97;93890.63;4192520;28;19951;-56
2023/04/13 01:30:23;;;;;;;;;;;;;;;8.06;48.04;93891.94;4192624;28;19932;-57
2023/04/13 01:32:26;;;;;;;;;;;;;;;8.09;47.99;93894.25;4182303;28;19967;-58
2023/04/13 01:34:27;;;;;;;;;;;;;;;8.08;47.94;93884.75;4192144;28;19929;-55
2023/04/13 01:36:29;;;;;;;;;;;;;;;8.06;47.83;93886.72;4192915;28;20003;-56
2023/04/13 01:38:30;;;;;;;;;;;;;;;8.03;47.55;93894.09;4191319;28;19928;-56
2023/04/13 01:40:33;;;;;;;;;;;;;;;8.01;47.66;93883.81;4193006;28;20018;-54
2023/04/13 01:42:35;;;;;;;;;;;;;;;8.00;47.27;93887.38;4193725;28;20517;-53
2023/04/13 01:44:37;;;;;;;;;;;;;;;7.96;47.71;93881.69;4191626;28;20315;-54
2023/04/13 01:46:42;;;;;;;;;;;;;;;7.97;48.12;93882.50;4192758;28;19975;-53
2023/04/13 01:48:50;;;;;;;;;;;;;;;7.97;48.21;93882.50;4191530;28;19931;-54
2023/04/13 01:51:02;;;;;;;;;;;;;;;7.95;47.57;93885.25;4191316;28;19934;-55
2023/04/13 01:53:10;;;;;;;;;;;;;;;7.93;47.86;93878.56;4190957;28;20329;-55
2023/04/13 01:55:12;;;;;;;;;;;;;;;7.94;48.44;93883.63;4192707;28;19964;-56
2023/04/13 01:57:14;;;;;;;;;;;;;;;7.95;48.37;93880.03;4193087;28;19924;-54
2023/04/13 01:59:16;;;;;;;;;;;;;;;7.99;48.32;93870.91;4191879;28;19932;-57
2023/04/13 02:01:17;;;;;;;;;;;;;;;7.96;48.22;93876.47;4192912;28;20027;-55
2023/04/13 02:03:21;;;;;;;;;;;;;;;7.95;48.57;93876.63;4192199;28;20411;-56
2023/04/13 02:05:23;;;;;;;;;;;;;;;7.88;48.05;93873.03;4192510;28;19978;-54
2023/04/13 02:07:24;;;;;;;;;;;;;;;7.80;48.41;93879.88;4192259;28;19924;-55
2023/04/13 02:09:27;;;;;;;;;;;;;;;7.83;48.23;93880.53;4191948;28;19928;-53
2023/04/13 02:11:28;;;;;;;;;;;;;;;7.82;48.08;93881.50;4192493;28;20506;-56
2023/04/13 02:13:30;;;;;;;;;;;;;;;7.79;47.70;93893.91;4193013;28;19932;-53
2023/04/13 02:15:34;;;;;;;;;;;;;;;7.72;48.46;93900.75;4191632;28;19932;-53
2023/04/13 02:17:36;;;;;;;;;;;;;;;7.63;48.51;93887.84;4180695;28;19929;-56
2023/04/13 02:19:38;;;;;;;;;;;;;;;7.58;49.27;93885.72;4192805;28;19935;-58
2023/04/13 02:21:40;;;;;;;;;;;;;;;7.51;49.37;93895.97;4192866;28;20430;-54
2023/04/13 02:23:42;;;;;;;;;;;;;;;7.51;48.81;93893.38;4191989;28;20558;-56
2023/04/13 02:25:45;;;;;;;;;;;;;;;7.52;49.15;93891.56;4192661;28;19941;-56
2023/04/13 02:27:48;;;;;;;;;;;;;;;7.48;49.17;93893.66;4192997;28;19924;-58
2023/04/13 02:29:51;;;;;;;;;;;;;;;7.48;49.18;93887.66;4192223;28;20380;-56
2023/04/13 02:31:52;;;;;;;;;;;;;;;7.45;49.27;93895.81;4191149;28;20270;-55
2023/04/13 02:33:54;;;;;;;;;;;;;;;7.42;48.98;93898.72;4191916;28;19996;-58
2023/04/13 02:35:56;;;;;;;;;;;;;;;7.38;49.25;93895.63;4192361;28;19924;-55
2023/04/13 02:37:57;;;;;;;;;;;;;;;7.37;49.46;93899.19;4192550;28;19925;-54
2023/04/13 02:39:59;;;;;;;;;;;;;;;7.36;49.94;93910.59;4192668;28;20021;-51
2023/04/13 02:42:01;;;;;;;;;;;;;;;7.42;49.87;93903.91;4191465;28;20027;-53
2023/04/13 02:44:03;;;;;;;;;;;;;;;7.45;49.57;93903.63;4193157;28;20419;-55
2023/04/13 02:46:05;;;;;;;;;;;;;;;7.46;49.57;93903.44;4192665;28;20475;-54
2023/04/13 02:48:08;;;;;;;;;;;;;;;7.45;48.23;93908.84;4192276;28;19973;-56
2023/04/13 02:50:10;;;;;;;;;;;;;;;7.41;49.23;93897.09;4192656;28;20004;-53
2023/04/13 02:52:12;;;;;;;;;;;;;;;7.41;49.22;93903.13;4191941;28;20007;-53
2023/04/13 02:54:14;;;;;;;;;;;;;;;7.47;48.85;93914.69;4191252;28;19928;-55
2023/04/13 02:56:16;;;;;;;;;;;;;;;7.49;49.39;93915.38;4192086;28;20335;-55
2023/04/13 02:58:20;;;;;;;;;;;;;;;7.52;49.33;93920.25;4191075;28;20446;-55
2023/04/13 03:00:22;;;;;;;;;;;;;;;7.48;49.53;93908.50;4182791;28;20557;-56
2023/04/13 03:02:25;;;;;;;;;;;;;;;7.42;49.58;93915.19;4187686;28;20575;-55
2023/04/13 03:04:28;;;;;;;;;;;;;;;7.37;49.76;93918.25;4191681;28;19986;-57
2023/04/13 03:06:30;;;;;;;;;;;;;;;7.34;49.23;93928.19;4191536;28;20065;-54
2023/04/13 03:08:31;;;;;;;;;;;;;;;7.35;49.27;93917.59;4192410;28;19956;-54
2023/04/13 03:10:33;;;;;;;;;;;;;;;7.32;49.23;93917.09;4185426;28;20349;-55
2023/04/13 03:12:35;;;;;;;;;;;;;;;7.29;49.17;93922.63;4191521;28;20294;-56
2023/04/13 03:14:37;;;;;;;;;;;;;;;7.31;49.08;93924.13;4190108;28;20156;-54
2023/04/13 03:16:38;;;;;;;;;;;;;;;7.30;48.77;93919.06;4192132;28;19924;-54
2023/04/13 03:18:40;;;;;;;;;;;;;;;7.29;48.78;93917.41;4190515;28;19979;-55
2023/04/13 03:20:42;;;;;;;;;;;;;;;7.27;49.40;93911.53;4189064;28;19924;-57
2023/04/13 03:22:44;;;;;;;;;;;;;;;7.28;48.96;93924.41;4192555;28;20429;-54
2023/04/13 03:24:46;;;;;;;;;;;;;;;7.20;49.21;93931.38;4191565;28;19932;-56
2023/04/13 03:26:48;;;;;;;;;;;;;;;7.14;49.39;93927.59;4191663;28;20373;-57
2023/04/13 03:28:49;;;;;;;;;;;;;;;7.08;49.72;93929.06;4179909;28;20384;-55
2023/04/13 03:30:51;;;;;;;;;;;;;;;7.14;49.90;93925.00;4190524;28;19950;-54
2023/04/13 03:32:53;;;;;;;;;;;;;;;7.17;49.39;93929.91;4190035;28;20365;-56
2023/04/13 03:34:54;;;;;;;;;;;;;;;7.14;49.72;93933.66;4191617;28;19928;-56
2023/04/13 03:36:56;;;;;;;;;;;;;;;7.12;49.84;93930.38;4191740;28;19928;-54
2023/04/13 03:38:57;;;;;;;;;;;;;;;7.13;49.75;93933.81;4187061;28;19972;-56
2023/04/13 03:40:59;;;;;;;;;;;;;;;7.19;50.04;93933.19;4190581;28;20424;-56
2023/04/13 03:43:01;;;;;;;;;;;;;;;7.20;49.62;93937.41;4191383;28;20395;-54
2023/04/13 03:45:05;;;;;;;;;;;;;;;7.26;49.14;93930.75;4190747;28;20300;-52
2023/04/13 03:47:08;;;;;;;;;;;;;;;7.28;49.46;93929.63;4191745;28;19931;-53
2023/04/13 03:49:10;;;;;;;;;;;;;;;7.33;49.22;93932.56;4191966;28;19931;-54
2023/04/13 03:51:11;;;;;;;;;;;;;;;7.17;49.07;93922.91;4191923;28;19978;-55
2023/04/13 03:53:13;;;;;;;;;;;;;;;7.10;50.75;93928.91;4191959;28;20468;-56
2023/04/13 03:55:14;;;;;;;;;;;;;;;7.17;49.58;93937.72;4191456;28;19925;-55
2023/04/13 03:57:16;;;;;;;;;;;;;;;7.21;50.60;93927.81;4191846;28;20010;-57
2023/04/13 03:59:18;;;;;;;;;;;;;;;7.33;49.90;93931.75;4191040;28;20602;-58
2023/04/13 04:01:20;;;;;;;;;;;;;;;7.33;48.78;93934.34;4179344;28;20371;-55
2023/04/13 04:03:23;;;;;;;;;;;;;;;7.41;48.60;93931.78;4191266;28;20479;-57
2023/04/13 04:05:25;;;;;;;;;;;;;;;7.37;48.28;93930.47;4192080;28;19947;-54
2023/04/13 04:07:26;;;;;;;;;;;;;;;7.26;48.68;93928.97;4191830;28;20367;-55
2023/04/13 04:09:28;;;;;;;;;;;;;;;7.27;49.21;93941.03;4191941;28;20022;-54
2023/04/13 04:11:30;;;;;;;;;;;;;;;7.31;48.68;93944.13;4189249;28;20348;-57
2023/04/13 04:13:31;;;;;;;;;;;;;;;7.38;48.23;93940.72;4189858;28;19924;-55
2023/04/13 04:15:33;;;;;;;;;;;;;;;7.39;48.33;93942.34;4190454;28;19928;-56
2023/04/13 04:17:34;;;;;;;;;;;;;;;7.38;48.09;93940.72;4190872;28;19925;-56
2023/04/13 04:19:39;;;;;;;;;;;;;;;7.46;48.08;93936.50;4191876;28;19951;-56
2023/04/13 04:21:45;;;;;;;;;;;;;;;7.42;47.69;93938.63;4191879;28;20674;-55
2023/04/13 04:23:47;;;;;;;;;;;;;;;7.42;48.60;93945.63;4190526;28;19963;-57
2023/04/13 04:25:48;;;;;;;;;;;;;;;7.49;48.40;93944.03;4190829;28;19925;-52
2023/04/13 04:27:56;;;;;;;;;;;;;;;7.58;48.13;93950.88;4191746;28;19924;-53
2023/04/13 04:29:59;;;;;;;;;;;;;;;7.61;49.02;93941.94;4189109;28;20219;-56
2023/04/13 04:32:01;;;;;;;;;;;;;;;7.65;48.98;93957.09;4190323;28;19929;-56
2023/04/13 04:34:03;;;;;;;;;;;;;;;7.72;48.66;93955.50;4191526;28;19924;-56
2023/04/13 04:36:06;;;;;;;;;;;;;;;7.69;48.89;93953.19;4191887;28;19928;-56
2023/04/13 04:38:08;;;;;;;;;;;;;;;7.75;48.73;93959.56;4194516;28;19928;-55
2023/04/13 04:40:09;;;;;;;;;;;;;;;7.76;48.45;93959.38;4194103;28;19932;-58
2023/04/13 04:42:11;;;;;;;;;;;;;;;7.79;48.61;93964.28;4193447;28;20130;-58
2023/04/13 04:44:15;;;;;;;;;;;;;;;7.89;48.46;93958.13;4193482;28;19929;-55
2023/04/13 04:46:17;;;;;;;;;;;;;;;7.98;47.46;93962.38;4192713;28;19928;-57
2023/04/13 04:48:19;;;;;;;;;;;;;;;8.03;46.94;93957.50;4192506;28;19950;-54
2023/04/13 04:50:20;;;;;;;;;;;;;;;7.95;47.63;93958.28;4192819;28;20006;-56
2023/04/13 04:52:23;;;;;;;;;;;;;;;8.02;47.56;93968.88;4192715;28;20273;-56
2023/04/13 04:54:25;;;;;;;;;;;;;;;7.88;47.21;93961.72;4193108;28;19925;-54
2023/04/13 04:56:27;;;;;;;;;;;;;;;7.86;47.84;93963.66;4191463;28;19939;-56
2023/04/13 04:58:29;;;;;;;;;;;;;;;7.93;48.12;93964.63;4191298;28;20558;-57
2023/04/13 05:00:31;;;;;;;;;;;;;;;8.03;47.63;93961.91;4193448;28;19924;-55
2023/04/13 05:02:32;;;;;;;;;;;;;;;8.20;47.08;93958.31;4192803;28;19928;-57
2023/04/13 05:04:34;;;;;;;;;;;;;;;8.29;47.07;93959.13;4183589;28;19932;-55
2023/04/13 05:06:35;;;;;;;;;;;;;;;8.40;45.99;93957.03;4194432;28;19982;-56
2023/04/13 05:08:37;;;;;;;;;;;;;;;8.46;46.33;93955.56;4193077;28;19928;-54
2023/04/13 05:10:44;;;;;;;;;;;;;;;8.52;46.09;93957.53;4193944;28;19989;-52
2023/04/13 05:12:46;;;;;;;;;;;;;;;8.61;46.09;93955.72;4185653;28;20377;-53
2023/04/13 05:14:47;;;;;;;;;;;;;;;8.73;45.76;93966.63;4192815;28;19940;-56
2023/04/13 05:16:50;;;;;;;;;;;;;;;8.74;45.52;93961.25;4193487;28;19925;-58
2023/04/13 05:18:51;;;;;;;;;;;;;;;8.74;45.27;93956.03;4191282;28;20342;-55
2023/04/13 05:20:53;;;;;;;;;;;;;;;8.70;46.21;93959.13;4194567;28;19924;-56
2023/04/13 05:22:54;;;;;;;;;;;;;;;8.60;45.15;93956.69;4194083;28;19925;-55
2023/04/13 05:24:56;;;;;;;;;;;;;;;8.61;45.66;93958.34;4193651;28;19928;-56
2023/04/13 05:26:57;;;;;;;;;;;;;;;8.72;45.31;93962.41;4193685;28;20017;-55
2023/04/13 05:28:59;;;;;;;;;;;;;;;8.77;45.31;93962.72;4194016;28;19931;-58
2023/04/13 05:31:01;;;;;;;;;;;;;;;8.30;44.73;93961.59;4193316;28;20012;-56
2023/04/13 05:33:05;;;;;;;;;;;;;;;8.11;45.12;93967.94;4192149;28;19978;-56
2023/04/13 05:35:07;;;;;;;;;;;;;;;8.02;45.84;93958.44;4193722;28;19924;-57
2023/04/13 05:37:10;;;;;;;;;;;;;;;7.95;45.31;93966.09;4194231;28;19989;-58
2023/04/13 05:39:11;;;;;;;;;;;;;;;7.99;45.41;93966.59;4194285;28;20015;-55
2023/04/13 05:41:13;;;;;;;;;;;;;;;8.00;45.22;93961.25;4194908;28;19990;-55
2023/04/13 05:43:14;;;;;;;;;;;;;;;8.00;45.42;93960.41;4193541;28;19979;-56
2023/04/13 05:45:16;;;;;;;;;;;;;;;7.96;45.39;93959.94;4194417;28;19936;-56
2023/04/13 05:47:20;;;;;;;;;;;;;;;8.16;45.10;93960.44;4192903;28;20013;-54
2023/04/13 05:49:21;;;;;;;;;;;;;;;8.38;44.51;93953.72;4194447;28;19951;-54
2023/04/13 05:51:23;;;;;;;;;;;;;;;8.55;44.47;93953.75;4194803;28;20073;-56
2023/04/13 05:53:25;;;;;;;;;;;;;;;8.64;44.45;93965.81;4197599;28;19928;-55
2023/04/13 05:55:26;;;;;;;;;;;;;;;8.59;44.27;93966.31;4192609;28;19932;-56
2023/04/13 05:57:28;;;;;;;;;;;;;;;8.66;44.01;93956.03;4195295;28;19924;-56
2023/04/13 05:59:29;;;;;;;;;;;;;;;8.82;43.71;93944.75;4188310;28;19973;-58
2023/04/13 06:01:31;;;;;;;;;;;;;;;9.00;43.19;93950.56;4197759;28;19970;-58
2023/04/13 06:03:33;;;;;;;;;;;;;;;8.99;42.73;93943.72;4196270;28;19924;-56
2023/04/13 06:05:35;;;;;;;;;;;;;;;8.84;43.02;93947.19;4197759;28;19978;-57
2023/04/13 06:07:37;;;;;;;;;;;;;;;8.54;44.46;93963.41;4195924;28;19978;-55
2023/04/13 06:09:38;;;;;;;;;;;;;;;8.19;44.42;93960.13;4192339;28;19928;-59
2023/04/13 06:11:40;;;;;;;;;;;;;;;7.97;45.75;93960.75;4193162;28;19978;-59
2023/04/13 06:13:42;;;;;;;;;;;;;;;8.31;44.83;93954.56;4189109;28;19976;-57
2023/04/13 06:15:43;;;;;;;;;;;;;;;8.63;45.06;93956.38;4181264;28;19924;-55
2023/04/13 06:17:45;;;;;;;;;;;;;;;8.90;44.70;93965.63;4192103;28;20020;-55
2023/04/13 06:19:46;;;;;;;;;;;;;;;9.10;43.31;93973.06;4193123;28;19971;-56
2023/04/13 06:21:48;;;;;;;;;;;;;;;9.29;44.14;93967.50;4193211;28;19952;-58
2023/04/13 06:23:50;;;;;;;;;;;;;;;9.50;43.81;93968.69;4192961;28;19975;-57
2023/04/13 06:25:51;;;;;;;;;;;;;;;9.69;43.49;93963.03;4192850;28;19978;-58
2023/04/13 06:27:53;;;;;;;;;;;;;;;9.96;43.07;93958.31;4191375;28;19925;-56
2023/04/13 06:29:56;;;;;;;;;;;;;;;10.09;43.52;93963.81;4191528;28;20375;-59
2023/04/13 06:31:58;;;;;;;;;;;;;;;10.24;43.22;93964.66;4186084;28;19940;-57
2023/04/13 06:34:00;;;;;;;;;;;;;;;10.22;42.55;93964.03;4191507;28;19925;-58
2023/04/13 06:36:02;;;;;;;;;;;;;;;10.33;42.08;93969.88;4191888;28;19990;-58
2023/04/13 06:38:04;;;;;;;;;;;;;;;10.47;43.16;93968.28;4192291;28;20008;-58
2023/04/13 06:40:09;;;;;;;;;;;;;;;10.51;42.12;93962.53;4192213;28;19928;-59
2023/04/13 06:42:12;;;;;;;;;;;;;;;10.63;41.59;93961.13;4183747;28;20347;-57
2023/04/13 06:44:13;;;;;;;;;;;;;;;10.84;42.28;93967.47;4193244;28;20005;-56
2023/04/13 06:46:15;;;;;;;;;;;;;;;10.66;40.70;93955.50;4191011;28;20257;-56
2023/04/13 06:48:20;;;;;;;;;;;;;;;10.72;41.56;93953.19;4191051;28;19925;-56
2023/04/13 06:50:21;;;;;;;;;;;;;;;10.81;40.33;93958.16;4192699;28;20014;-56
2023/04/13 06:52:22;;;;;;;;;;;;;;;10.79;40.19;93954.09;4192744;28;19929;-51
2023/04/13 06:54:24;;;;;;;;;;;;;;;10.84;40.84;93956.97;4192494;28;20366;-57
2023/04/13 06:56:26;;;;;;;;;;;;;;;10.72;40.27;93955.81;4192705;28;19972;-57
2023/04/13 06:58:27;;;;;;;;;;;;;;;10.59;40.25;93954.59;4190199;28;19928;-57
2023/04/13 07:00:29;;;;;;;;;;;;;;;10.45;40.52;93965.84;4191795;28;19934;-59
2023/04/13 07:02:31;;;;;;;;;;;;;;;10.14;41.31;93966.69;4191204;28;19931;-54
2023/04/13 07:04:32;;;;;;;;;;;;;;;10.32;42.01;93965.63;4179501;28;19931;-58
2023/04/13 07:06:35;;;;;;;;;;;;;;;10.64;41.24;93956.69;4192618;28;20010;-57
2023/04/13 07:08:36;;;;;;;;;;;;;;;10.85;40.21;93958.63;4192582;28;19928;-59
2023/04/13 07:10:39;;;;;;;;;;;;;;;10.84;39.73;93956.97;4191586;28;19928;-59
2023/04/13 07:12:41;;;;;;;;;;;;;;;10.67;40.29;93953.72;4191822;28;19924;-59
2023/04/13 07:14:45;;;;;;;;;;;;;;;10.39;40.35;93950.81;4187534;28;20032;-55
2023/04/13 07:16:46;;;;;;;;;;;;;;;10.45;41.13;93953.59;4190229;28;19982;-57
2023/04/13 07:18:48;;;;;;;;;;;;;;;10.65;40.70;93951.28;4187515;28;20000;-54
2023/04/13 07:20:49;;;;;;;;;;;;;;;10.93;39.91;93953.31;4192016;28;19987;-56
2023/04/13 07:22:51;;;;;;;;;;;;;;;11.10;39.85;93958.38;4192399;28;19924;-58
2023/04/13 07:24:52;;;;;;;;;;;;;;;11.26;39.90;93952.94;4192275;28;19985;-59
2023/04/13 07:26:56;;;;;;;;;;;;;;;11.50;39.46;93945.78;4190701;28;20365;-60
2023/04/13 07:28:57;;;;;;;;;;;;;;;11.73;38.98;93951.72;4192212;28;19928;-59
2023/04/13 07:31:01;;;;;;;;;;;;;;;11.30;38.73;93951.59;4191380;28;19975;-59
2023/04/13 07:33:02;;;;;;;;;;;;;;;11.20;39.46;93943.19;4191523;28;19924;-59
2023/04/13 07:35:04;;;;;;;;;;;;;;;11.35;39.44;93943.97;4191562;28;19931;-59
2023/04/13 07:37:06;;;;;;;;;;;;;;;11.45;39.21;93939.28;4191946;28;20011;-57
2023/04/13 07:39:08;;;;;;;;;;;;;;;11.41;38.93;93945.88;4187255;28;19960;-58
2023/04/13 07:41:10;;;;;;;;;;;;;;;11.43;38.74;93941.28;4191548;28;20031;-56
2023/04/13 07:43:11;;;;;;;;;;;;;;;11.64;38.92;93940.53;4189994;28;19974;-57
2023/04/13 07:45:14;;;;;;;;;;;;;;;11.95;38.82;93936.03;4190937;28;19935;-59
2023/04/13 07:47:15;;;;;;;;;;;;;;;12.18;38.06;93941.13;4191307;28;19935;-58
2023/04/13 07:49:17;;;;;;;;;;;;;;;11.96;37.69;93933.25;4191970;28;19978;-56
2023/04/13 07:51:19;;;;;;;;;;;;;;;11.66;38.22;93935.91;4191541;28;19932;-55
2023/04/13 07:53:20;;;;;;;;;;;;;;;11.52;38.56;93930.69;4192296;28;20373;-57
2023/04/13 07:55:22;;;;;;;;;;;;;;;11.37;39.18;93931.50;4191436;28;19928;-59
2023/04/13 07:57:23;;;;;;;;;;;;;;;11.58;38.48;93922.88;4191497;28;19924;-59
2023/04/13 07:59:25;;;;;;;;;;;;;;;11.85;38.35;93924.00;4190697;28;20026;-58
2023/04/13 08:01:26;;;;;;;;;;;;;;;12.09;37.82;93925.50;4191747;28;19925;-57
2023/04/13 08:03:34;;;;;;;;;;;;;;;12.28;37.47;93929.31;4190943;28;19924;-58
2023/04/13 08:05:35;;;;;;;;;;;;;;;12.07;37.52;93931.94;4191428;28;19928;-58
2023/04/13 08:07:37;;;;;;;;;;;;;;;11.91;37.95;93927.72;4191843;28;19964;-59
2023/04/13 08:09:39;;;;;;;;;;;;;;;12.03;38.23;93922.81;4191708;28;19932;-58
2023/04/13 08:11:41;;;;;;;;;;;;;;;12.34;37.88;93919.84;4195331;28;20307;-57
2023/04/13 08:13:42;;;;;;;;;;;;;;;12.51;37.10;93917.78;4194871;28;19929;-57
2023/04/13 08:15:44;;;;;;;;;;;;;;;12.75;37.04;93920.97;4185681;28;19933;-59
2023/04/13 08:17:46;;;;;;;;;;;;;;;13.11;36.29;93913.72;4191560;28;19971;-58
2023/04/13 08:19:47;;;;;;;;;;;;;;;13.36;35.54;93915.94;4194882;28;20056;-56
2023/04/13 08:21:50;;;;;;;;;;;;;;;13.54;34.98;93909.31;4194127;28;19928;-55
2023/04/13 08:23:51;;;;;;;;;;;;;;;13.69;35.26;93907.34;4194303;28;19940;-56
2023/04/13 08:25:53;;;;;;;;;;;;;;;13.83;34.43;93905.56;4194000;28;20309;-56
2023/04/13 08:27:55;;;;;;;;;;;;;;;14.05;34.77;93906.25;4194169;28;19947;-57
2023/04/13 08:30:00;;;;;;;;;;;;;;;14.19;34.08;93902.59;4193101;28;20380;-57
2023/04/13 08:32:02;;;;;;;;;;;;;;;14.34;34.16;93891.88;4193065;28;19928;-57
2023/04/13 08:34:04;;;;;;;;;;;;;;;14.47;33.13;93896.34;4193618;28;19924;-57
2023/04/13 08:36:06;;;;;;;;;;;;;;;14.47;33.46;93899.78;4193864;28;19925;-59
2023/04/13 08:38:08;;;;;;;;;;;;;;;14.53;33.95;93898.97;4193858;28;19987;-59
2023/04/13 08:40:10;;;;;;;;;;;;;;;14.42;33.97;93901.44;4194675;28;20247;-60
2023/04/13 08:42:12;;;;;;;;;;;;;;;14.39;34.14;93894.75;4194901;28;19924;-59
2023/04/13 08:44:14;;;;;;;;;;;;;;;14.40;34.28;93890.28;4193462;28;19924;-59
2023/04/13 08:46:19;;;;;;;;;;;;;;;14.42;34.28;93886.41;4191920;28;19932;-57
2023/04/13 08:48:22;;;;;;;;;;;;;;;14.58;33.85;93893.13;4193144;28;19932;-57
2023/04/13 08:50:24;;;;;;;;;;;;;;;14.83;33.86;93885.41;4194767;28;19948;-59
2023/04/13 08:52:27;;;;;;;;;;;;;;;15.06;33.73;93879.69;4194434;28;19928;-56
2023/04/13 08:54:28;;;;;;;;;;;;;;;14.94;33.25;93876.06;4194016;28;19925;-58
2023/04/13 08:56:30;;;;;;;;;;;;;;;14.94;33.28;93882.16;4194411;28;19978;-58
2023/04/13 08:58:46;;;;;;;;;;;;;;;15.09;33.25;93876.63;4194417;28;19982;-59
2023/04/13 09:00:48;;;;;;;;;;;;;;;15.28;32.83;93877.59;4192043;28;19951;-60
2023/04/13 09:02:59;;;;;;;;;;;;;;;15.07;32.74;93873.41;4190486;28;19924;-59
2023/04/13 09:05:14;;;;;;;;;;;;;;;14.94;33.42;93876.88;4194209;28;19962;-56
2023/04/13 09:07:20;;;;;;;;;;;;;;;14.56;33.74;93879.34;4194558;28;19928;-57
2023/04/13 09:09:22;;;;;;;;;;;;;;;14.48;34.13;93874.28;4192024;28;19951;-58
2023/04/13 09:11:24;;;;;;;;;;;;;;;14.69;33.84;93863.53;4185261;28;19929;-58
2023/04/13 09:13:25;;;;;;;;;;;;;;;14.55;33.56;93877.72;4194322;28;19928;-59
2023/04/13 09:15:27;;;;;;;;;;;;;;;14.74;34.28;93869.00;4193017;28;20011;-58
2023/04/13 09:17:31;;;;;;;;;;;;;;;15.04;33.78;93871.19;4186700;28;19971;-58
2023/04/13 09:19:32;;;;;;;;;;;;;;;15.22;33.19;93862.59;4194193;28;20613;-58
2023/04/13 09:21:35;;;;;;;;;;;;;;;15.34;33.14;93854.88;4190628;28;19932;-60
2023/04/13 09:23:36;;;;;;;;;;;;;;;15.50;33.49;93850.94;4193395;28;20002;-56
2023/04/13 09:25:38;;;;;;;;;;;;;;;15.54;33.15;93852.94;4193976;28;20352;-57
2023/04/13 09:27:39;;;;;;;;;;;;;;;15.61;33.10;93844.97;4193925;28;20327;-58
2023/04/13 09:29:47;;;;;;;;;;;;;;;15.91;32.92;93847.91;4192272;28;20340;-61
2023/04/13 09:31:48;;;;;;;;;;;;;;;15.94;32.59;93854.59;4193182;28;19935;-56
2023/04/13 09:33:50;;;;;;;;;;;;;;;15.96;32.55;93849.94;4193672;28;19987;-57
2023/04/13 09:35:52;;;;;;;;;;;;;;;15.67;33.13;93848.63;4193786;28;20037;-57
2023/04/13 09:37:54;;;;;;;;;;;;;;;15.41;33.42;93842.44;4193386;28;19925;-58
2023/04/13 09:40:07;;;;;;;;;;;;;;;15.51;33.35;93840.16;4193263;28;20276;-55
2023/04/13 09:42:09;;;;;;;;;;;;;;;15.54;33.34;93838.94;4181610;28;19974;-58
2023/04/13 09:44:17;;;;;;;;;;;;;;;15.88;33.45;93840.41;4192601;28;20237;-58
2023/04/13 09:46:19;;;;;;;;;;;;;;;16.33;32.62;93831.56;4173463;28;19955;-58
2023/04/13 09:48:21;;;;;;;;;;;;;;;16.63;32.29;93831.72;4190658;28;20396;-58
2023/04/13 09:50:27;;;;;;;;;;;;;;;16.54;31.74;93827.72;4192583;28;19924;-55
2023/04/13 09:52:28;;;;;;;;;;;;;;;16.76;31.96;93818.38;4192139;28;19931;-57
2023/04/13 09:54:30;;;;;;;;;;;;;;;16.94;32.20;93819.44;4191070;28;20035;-54
2023/04/13 09:56:41;;;;;;;;;;;;;;;17.21;31.64;93812.03;4192215;28;19932;-55
2023/04/13 09:58:44;;;;;;;;;;;;;;;17.30;31.36;93818.63;4190658;28;19924;-58
2023/04/13 10:00:45;;;;;;;;;;;;;;;17.53;30.94;93817.94;4191483;28;19928;-57
2023/04/13 10:02:48;;;;;;;;;;;;;;;17.30;30.60;93817.84;4190565;28;20012;-57
2023/04/13 10:04:50;;;;;;;;;;;;;;;16.93;31.32;93809.91;4190337;28;20031;-56
2023/04/13 10:06:52;;;;;;;;;;;;;;;17.01;31.08;93801.66;4190650;28;19959;-57
2023/04/13 10:08:53;;;;;;;;;;;;;;;16.58;31.56;93803.28;4192580;28;19924;-57
2023/04/13 10:10:55;;;;;;;;;;;;;;;16.59;31.66;93809.38;4192564;28;19975;-55
2023/04/13 10:12:57;;;;;;;;;;;;;;;16.70;31.81;93799.94;4192543;28;19928;-56
2023/04/13 10:15:03;;;;;;;;;;;;;;;16.96;31.60;93797.03;4190724;28;19924;-58
2023/04/13 10:17:04;;;;;;;;;;;;;;;17.13;31.61;93802.53;4188373;28;19924;-57
2023/04/13 10:19:10;;;;;;;;;;;;;;;17.32;31.53;93808.63;4186653;28;20296;-59
2023/04/13 10:21:12;;;;;;;;;;;;;;;17.37;31.26;93797.38;4193598;28;20031;-58
2023/04/13 10:23:14;;;;;;;;;;;;;;;17.20;30.94;93802.47;4193644;28;20015;-58
2023/04/13 10:25:15;;;;;;;;;;;;;;;16.83;31.55;93794.53;4193407;28;19925;-56
2023/04/13 10:27:34;;;;;;;;;;;;;;;17.17;31.53;93798.41;4193565;28;19932;-59
2023/04/13 10:29:36;;;;;;;;;;;;;;;17.42;31.00;93792.22;4193320;28;20038;-56
2023/04/13 10:31:38;;;;;;;;;;;;;;;17.61;31.08;93785.03;4191785;28;19924;-58
2023/04/13 10:33:47;;;;;;;;;;;;;;;17.83;31.38;93780.06;4191491;28;20412;-57
2023/04/13 10:35:56;;;;;;;;;;;;;;;18.14;31.30;93791.44;4192205;28;20407;-57
2023/04/13 10:37:58;;;;;;;;;;;;;;;17.92;31.05;93789.34;4193418;28;20016;-57
2023/04/13 10:40:06;;;;;;;;;;;;;;;17.71;31.39;93787.16;4192412;28;19990;-59
2023/04/13 10:42:08;;;;;;;;;;;;;;;17.63;31.59;93790.91;4190453;28;19982;-57
2023/04/13 10:44:10;;;;;;;;;;;;;;;17.56;31.55;93788.38;4186758;28;19944;-57